Погода Хавлоднона 2 недели

Великопольское воеводство, Польша

19 июля-01 августа
  • 19июля
    Сегодня
    +15°
    +27°
    Облачно с прояснениями
    ВремяПогодаТемператураВлажностьДавлениеВетер, м/сВероятность осадков
    02:00Небольшая облачность+16°C89 %761 мм1.8 м/с2 %
    05:00Ясно и безоблачно+15°C96 %761 мм1.7 м/с2 %
    08:00Практически безоблачно+19°C79 %761 мм0.9 м/с2 %
    11:00Небольшая облачность+23°C60 %760 мм1.0 м/с2 %
    14:00Облачно с прояснениями+25°C50 %760 мм1.7 м/с2 %
    17:00Небольшая облачность+26°C46 %758 мм1.5 м/с2 %
    20:00Небольшая облачность+25°C57 %758 мм2.2 м/с2 %
    23:00Ясно и безоблачно+19°C76 %757 мм1.9 м/с2 %
  • 20июля
    Суббота
    +16°
    +28°
    Практически безоблачно
    ВремяПогодаТемператураВлажностьДавлениеВетер, м/сВероятность осадков
    02:00Облачно с прояснениями+16°C87 %757 мм1.5 м/с2 %
    05:00Облачно с прояснениями+15°C95 %756 мм1.5 м/с2 %
    08:00Облачно с прояснениями+20°C75 %756 мм0.4 м/с2 %
    11:00Небольшая облачность+25°C53 %755 мм0.7 м/с2 %
    14:00Практически безоблачно+27°C42 %754 мм0.9 м/с2 %
    17:00Небольшая облачность+28°C37 %753 мм1.6 м/с1 %
    20:00Ясно и безоблачно+25°C52 %752 мм2.6 м/с2 %
    23:00Ясно и безоблачно+20°C59 %752 мм2.2 м/с2 %
  • 21июля
    Воскресенье
    +17°
    +29°
    Ясно и безоблачно
    ВремяПогодаТемператураВлажностьДавлениеВетер, м/сВероятность осадков
    02:00Ясно и безоблачно+17°C74 %752 мм1.9 м/с2 %
    05:00Ясно и безоблачно+16°C83 %752 мм1.9 м/с2 %
    08:00Ясно и безоблачно+21°C68 %751 мм1.8 м/с2 %
    11:00Ясно и безоблачно+26°C46 %751 мм1.6 м/с2 %
    14:00Ясно и безоблачно+29°C40 %751 мм1.7 м/с2 %
    17:00Практически безоблачно+28°C39 %750 мм3.2 м/с2 %
    20:00Ясно и безоблачно+26°C53 %750 мм1.8 м/с2 %
    23:00Облачно с прояснениями+21°C62 %751 мм3.5 м/с2 %
  • 22июля
    Понедельник
    +14°
    +29°
    Облачно с прояснениями
    ВремяПогодаТемператураВлажностьДавлениеВетер, м/сВероятность осадков
    02:00Небольшая облачность+19°C71 %751 мм2.9 м/с2 %
    05:00Ясно и безоблачно+17°C84 %751 мм1.8 м/с2 %
    08:00Ясно и безоблачно+22°C70 %751 мм1.7 м/с2 %
    11:00Небольшая облачность+28°C43 %751 мм1.6 м/с8 %
    14:00Облачно с прояснениями+28°C34 %751 мм1.3 м/с25 %
    17:00Пасмурно, сплошная облачность+21°C83 %752 мм3.3 м/с48 %
    20:00Небольшая облачность, ливень+21°C89 %753 мм1.9 м/с56 %
    23:00Небольшая облачность+19°C93 %754 мм4.2 м/с38 %
  • 23июля
    Вторник
    +14°
    +24°
    Ясно и безоблачно
    ВремяПогодаТемператураВлажностьДавлениеВетер, м/сВероятность осадков
    02:00Ясно и безоблачно+17°C94 %755 мм3.6 м/с34 %
    05:00Ясно и безоблачно+15°C95 %756 мм2.8 м/с26 %
    08:00Ясно и безоблачно+18°C83 %756 мм3.0 м/с27 %
    11:00Практически безоблачно+21°C58 %756 мм2.9 м/с27 %
    14:00Ясно и безоблачно+23°C45 %756 мм2.5 м/с29 %
    17:00Практически безоблачно+24°C42 %755 мм2.2 м/с21 %
    20:00Ясно и безоблачно+23°C64 %755 мм0.3 м/с19 %
    23:00Небольшая облачность+19°C68 %755 мм1.1 м/с14 %
Мы используем cookies
Соглашаюсь